createdAt,value
2019-02-14T00:00:41.063Z,21.04
2019-02-14T00:03:10.713Z,21.01
2019-02-14T00:05:40.377Z,20.97
2019-02-14T00:08:10.057Z,20.96
2019-02-14T00:10:39.846Z,20.89
2019-02-14T00:13:09.534Z,20.96
2019-02-14T00:15:39.229Z,20.92
2019-02-14T00:18:08.868Z,20.88
2019-02-14T00:20:38.546Z,20.90
2019-02-14T00:23:08.184Z,20.92
2019-02-14T00:25:37.784Z,20.97
2019-02-14T00:28:07.475Z,21.06
2019-02-14T00:30:37.093Z,20.98
2019-02-14T00:33:06.841Z,21.05
2019-02-14T00:35:36.410Z,21.04
2019-02-14T00:38:06.022Z,21.13
2019-02-14T00:40:35.824Z,21.16
2019-02-14T00:43:05.453Z,21.16
2019-02-14T00:45:36.897Z,21.16
2019-02-14T00:48:06.511Z,21.09
2019-02-14T00:50:36.317Z,21.03
2019-02-14T00:53:05.934Z,21.06
2019-02-14T00:55:35.626Z,21.00
2019-02-14T00:58:05.245Z,20.96
2019-02-14T01:00:34.972Z,20.93
2019-02-14T01:03:04.670Z,20.98
2019-02-14T01:05:34.373Z,20.98
2019-02-14T01:08:04.178Z,20.99
2019-02-14T01:10:33.820Z,20.98
2019-02-14T01:13:03.506Z,20.95
2019-02-14T01:15:34.416Z,20.96
2019-02-14T01:18:04.071Z,20.99
2019-02-14T01:20:33.760Z,20.99
2019-02-14T01:23:03.379Z,20.97
2019-02-14T01:25:33.077Z,20.95
2019-02-14T01:28:02.619Z,20.86
2019-02-14T01:30:32.394Z,20.85
2019-02-14T01:33:02.105Z,20.82
2019-02-14T01:35:31.839Z,20.82
2019-02-14T01:38:01.473Z,20.85
2019-02-14T01:40:31.053Z,20.78
2019-02-14T01:43:00.905Z,20.80
2019-02-14T01:45:30.577Z,20.84
2019-02-14T01:48:00.267Z,20.84
2019-02-14T01:50:29.905Z,20.84
2019-02-14T01:52:59.592Z,20.79
2019-02-14T01:55:29.302Z,20.77
2019-02-14T01:57:59.028Z,20.77
2019-02-14T02:00:28.718Z,20.77
2019-02-14T02:02:58.399Z,20.76
2019-02-14T02:05:28.150Z,20.76
2019-02-14T02:07:57.775Z,20.78
2019-02-14T02:10:27.498Z,20.78
2019-02-14T02:12:57.091Z,20.80
2019-02-14T02:15:26.786Z,20.81
2019-02-14T02:17:56.525Z,20.75
2019-02-14T02:20:33.167Z,20.78
2019-02-14T02:22:57.637Z,20.79
2019-02-14T02:25:27.466Z,20.75
2019-02-14T02:27:57.211Z,20.75
2019-02-14T02:30:26.990Z,20.74
2019-02-14T02:32:56.723Z,20.74
2019-02-14T02:35:26.318Z,20.76
2019-02-14T02:37:56.127Z,20.80
2019-02-14T02:40:25.778Z,20.71
2019-02-14T02:42:55.445Z,20.77
2019-02-14T02:45:25.084Z,20.80
2019-02-14T02:47:54.869Z,20.82
2019-02-14T02:50:24.498Z,20.78
2019-02-14T02:52:54.221Z,20.77
2019-02-14T02:55:23.924Z,20.83
2019-02-14T02:57:53.605Z,20.78
2019-02-14T03:00:23.356Z,20.80
2019-02-14T03:02:52.973Z,20.78
2019-02-14T03:05:22.745Z,20.75
2019-02-14T03:07:52.449Z,20.80
2019-02-14T03:10:22.175Z,20.83
2019-02-14T03:12:51.825Z,20.75
2019-02-14T03:15:21.485Z,20.77
2019-02-14T03:17:51.117Z,20.78
2019-02-14T03:20:20.717Z,20.73
2019-02-14T03:22:50.441Z,20.82
2019-02-14T03:25:19.947Z,20.80
2019-02-14T03:27:49.669Z,20.79
2019-02-14T03:30:19.358Z,20.78
2019-02-14T03:32:49.054Z,20.75
2019-02-14T03:35:18.858Z,20.71
2019-02-14T03:37:48.594Z,20.71
2019-02-14T03:40:18.317Z,20.79
2019-02-14T03:42:47.916Z,20.76
2019-02-14T03:45:18.073Z,20.72
2019-02-14T03:47:47.720Z,20.75
2019-02-14T03:50:17.428Z,20.65
2019-02-14T03:52:47.208Z,20.63
2019-02-14T03:55:16.955Z,20.65
2019-02-14T03:57:46.695Z,20.61
2019-02-14T04:00:16.628Z,20.70
2019-02-14T04:02:46.316Z,20.67
2019-02-14T04:05:16.052Z,20.70
2019-02-14T04:07:45.641Z,20.68
2019-02-14T04:10:15.440Z,20.68
2019-02-14T04:12:45.169Z,20.73
2019-02-14T04:15:15.845Z,20.75
2019-02-14T04:17:45.699Z,20.76
2019-02-14T04:20:15.423Z,20.83
2019-02-14T04:22:45.120Z,20.79
2019-02-14T04:25:14.820Z,20.68
2019-02-14T04:27:44.614Z,20.72
2019-02-14T04:30:14.451Z,20.66
2019-02-14T04:32:44.189Z,20.69
2019-02-14T04:35:13.982Z,20.73
2019-02-14T04:37:43.602Z,20.75
2019-02-14T04:40:13.604Z,20.77
2019-02-14T04:42:43.342Z,20.77
2019-02-14T04:45:13.125Z,20.80
2019-02-14T04:47:43.141Z,20.73
2019-02-14T04:50:12.849Z,20.70
2019-02-14T04:52:42.565Z,20.73
2019-02-14T04:55:12.288Z,20.79
2019-02-14T04:57:41.986Z,20.78
2019-02-14T05:00:12.083Z,20.78
2019-02-14T05:02:41.705Z,20.79
2019-02-14T05:05:12.867Z,20.73
2019-02-14T05:07:42.690Z,20.73
2019-02-14T05:10:12.408Z,20.66
2019-02-14T05:12:42.227Z,20.64
2019-02-14T05:15:11.941Z,20.64
2019-02-14T05:17:41.537Z,20.72
2019-02-14T05:20:11.440Z,20.77
2019-02-14T05:22:41.067Z,20.90
2019-02-14T05:25:10.751Z,20.73
2019-02-14T05:27:40.355Z,20.61
2019-02-14T05:30:11.350Z,20.58
2019-02-14T05:32:40.927Z,20.54
2019-02-14T05:35:10.524Z,20.52
2019-02-14T05:37:40.145Z,20.51
2019-02-14T05:40:10.323Z,20.56
2019-02-14T05:42:40.089Z,20.53
2019-02-14T05:45:10.641Z,20.48
2019-02-14T05:47:40.410Z,20.59
2019-02-14T05:50:10.363Z,20.49
2019-02-14T05:52:40.051Z,20.57
2019-02-14T05:55:10.769Z,20.66
2019-02-14T05:57:40.504Z,20.68
2019-02-14T06:00:12.117Z,20.94
2019-02-14T06:02:42.348Z,19.72
2019-02-14T06:05:12.619Z,18.62
2019-02-14T06:07:44.409Z,19.29
2019-02-14T06:10:14.606Z,19.79
2019-02-14T06:12:44.765Z,20.02
2019-02-14T06:15:16.331Z,20.11
2019-02-14T06:17:46.395Z,20.27
2019-02-14T06:20:16.614Z,20.37
2019-02-14T06:22:48.255Z,20.42
2019-02-14T06:25:19.100Z,20.57
2019-02-14T06:27:49.336Z,20.58
2019-02-14T06:30:19.609Z,20.52
2019-02-14T06:32:49.584Z,20.58
2019-02-14T06:35:20.899Z,20.46
2019-02-14T06:37:54.533Z,20.42
2019-02-14T06:40:27.406Z,20.63
2019-02-14T06:43:01.363Z,20.77
2019-02-14T06:45:34.873Z,20.92
2019-02-14T06:48:09.720Z,20.95
2019-02-14T06:50:39.423Z,20.99
2019-02-14T06:53:09.348Z,20.96
2019-02-14T06:55:41.041Z,20.93
2019-02-14T06:58:13.527Z,21.06
2019-02-14T07:00:45.140Z,21.12
2019-02-14T07:03:18.498Z,20.97
2019-02-14T07:05:52.647Z,20.95
2019-02-14T07:08:22.690Z,20.89
2019-02-14T07:10:54.131Z,20.92
2019-02-14T07:13:25.352Z,20.86
2019-02-14T07:15:55.248Z,20.84
2019-02-14T07:18:25.142Z,20.80
2019-02-14T07:20:55.735Z,20.81
2019-02-14T07:23:26.627Z,20.85
2019-02-14T07:25:56.736Z,20.81
2019-02-14T07:28:27.614Z,20.79
2019-02-14T07:30:57.794Z,20.81
2019-02-14T07:33:27.858Z,20.84
2019-02-14T07:35:57.785Z,20.90
2019-02-14T07:38:27.571Z,20.94
2019-02-14T07:40:57.641Z,20.81
2019-02-14T07:43:27.398Z,20.78
2019-02-14T07:45:57.465Z,20.72
2019-02-14T07:48:27.377Z,20.67
2019-02-14T07:50:58.854Z,20.72
2019-02-14T07:53:28.674Z,20.64
2019-02-14T07:55:58.908Z,20.66
2019-02-14T07:58:29.051Z,20.66
2019-02-14T08:01:00.379Z,20.73
2019-02-14T08:03:30.503Z,20.64
2019-02-14T08:06:00.552Z,20.74
2019-02-14T08:08:30.730Z,20.78
2019-02-14T08:11:00.821Z,20.80
2019-02-14T08:13:30.825Z,20.82
2019-02-14T08:16:00.767Z,20.80
2019-02-14T08:18:30.978Z,20.68
2019-02-14T08:21:00.964Z,20.71
2019-02-14T08:23:32.052Z,20.72
2019-02-14T08:26:10.414Z,20.72
2019-02-14T08:28:33.719Z,20.70
2019-02-14T08:31:04.104Z,20.72
2019-02-14T08:33:37.401Z,20.78
2019-02-14T08:36:07.913Z,20.85
2019-02-14T08:38:39.860Z,20.83
2019-02-14T08:41:10.125Z,20.90
2019-02-14T08:43:40.308Z,21.00
2019-02-14T08:46:11.586Z,20.99
2019-02-14T08:48:44.096Z,21.04
2019-02-14T08:51:13.783Z,20.98
2019-02-14T08:53:43.486Z,21.02
2019-02-14T08:56:13.302Z,21.05
2019-02-14T08:58:43.034Z,21.13
2019-02-14T09:01:12.827Z,21.17
2019-02-14T09:03:42.454Z,21.21
2019-02-14T09:06:12.214Z,21.23
2019-02-14T09:08:41.983Z,21.26
2019-02-14T09:11:11.671Z,21.33
2019-02-14T09:13:41.368Z,21.34
2019-02-14T09:16:11.212Z,21.39
2019-02-14T09:18:40.905Z,21.42
2019-02-14T09:21:10.574Z,21.45
2019-02-14T09:23:40.329Z,21.49
2019-02-14T09:26:09.958Z,21.53
2019-02-14T09:28:39.576Z,21.55
2019-02-14T09:31:09.358Z,21.58
2019-02-14T09:33:38.995Z,21.62
2019-02-14T09:36:08.871Z,21.67
2019-02-14T09:38:38.497Z,21.63
2019-02-14T09:41:08.193Z,21.69
2019-02-14T09:43:38.020Z,21.71
2019-02-14T09:46:07.656Z,21.75
2019-02-14T09:48:37.481Z,21.79
2019-02-14T09:51:07.073Z,21.82
2019-02-14T09:53:36.688Z,21.83
2019-02-14T09:56:07.856Z,21.85
2019-02-14T09:58:37.613Z,21.88
2019-02-14T10:01:07.560Z,21.92
2019-02-14T10:03:37.230Z,21.95
2019-02-14T10:06:06.875Z,21.93
2019-02-14T10:08:37.959Z,21.94
2019-02-14T10:11:07.719Z,21.96
2019-02-14T10:13:37.407Z,21.96
2019-02-14T10:16:07.097Z,21.96
2019-02-14T10:18:36.850Z,21.90
2019-02-14T10:21:06.663Z,21.99
2019-02-14T10:23:36.445Z,22.00
2019-02-14T10:26:06.227Z,22.04
2019-02-14T10:28:36.001Z,21.96
2019-02-14T10:31:05.695Z,22.04
2019-02-14T10:33:35.420Z,22.02
2019-02-14T10:36:05.166Z,22.10
2019-02-14T10:38:34.826Z,22.07
2019-02-14T10:41:04.636Z,22.07
2019-02-14T10:43:34.323Z,22.11
2019-02-14T10:46:04.059Z,22.12
2019-02-14T10:48:33.806Z,22.12
2019-02-14T10:51:03.578Z,22.14
2019-02-14T10:53:33.302Z,22.16
2019-02-14T10:56:02.929Z,22.15
2019-02-14T10:58:32.643Z,22.16
2019-02-14T11:01:02.456Z,22.16
2019-02-14T11:03:32.141Z,22.19
2019-02-14T11:06:01.854Z,22.20
2019-02-14T11:08:32.117Z,22.22
2019-02-14T11:11:01.822Z,22.25
2019-02-14T11:13:31.898Z,22.23
2019-02-14T11:16:01.540Z,22.27
2019-02-14T11:18:31.222Z,22.29
2019-02-14T11:21:00.974Z,22.29
2019-02-14T11:23:30.749Z,22.30
2019-02-14T11:26:00.434Z,22.33
2019-02-14T11:28:30.166Z,22.34
2019-02-14T11:30:59.873Z,22.35
2019-02-14T11:33:29.626Z,22.37
2019-02-14T11:35:59.419Z,22.34
2019-02-14T11:38:29.037Z,22.36
2019-02-14T11:40:58.832Z,22.35
2019-02-14T11:43:28.559Z,22.34
2019-02-14T11:45:58.226Z,22.35
2019-02-14T11:48:27.950Z,22.36
2019-02-14T11:50:57.589Z,22.36
2019-02-14T11:53:29.350Z,22.37
2019-02-14T11:55:58.959Z,22.33
2019-02-14T11:58:28.572Z,22.36
2019-02-14T12:00:58.249Z,22.35
2019-02-14T12:03:28.075Z,22.33
2019-02-14T12:05:57.707Z,22.32
2019-02-14T12:08:27.287Z,22.34
2019-02-14T12:10:56.998Z,22.34
2019-02-14T12:13:26.623Z,22.35
2019-02-14T12:15:56.385Z,22.34
2019-02-14T12:18:26.146Z,22.34
2019-02-14T12:20:55.834Z,22.34
2019-02-14T12:23:25.655Z,22.34
2019-02-14T12:25:55.309Z,22.38
2019-02-14T12:28:24.981Z,22.37
2019-02-14T12:30:54.606Z,22.33
2019-02-14T12:33:24.298Z,22.36
2019-02-14T12:35:54.352Z,22.36
2019-02-14T12:38:24.234Z,22.36
2019-02-14T12:40:53.933Z,22.34
2019-02-14T12:43:23.522Z,22.36
2019-02-14T12:45:53.349Z,22.40
2019-02-14T12:48:23.076Z,22.39
2019-02-14T12:50:52.705Z,22.39
2019-02-14T12:53:22.593Z,22.37
2019-02-14T12:55:52.360Z,22.38
2019-02-14T12:58:21.926Z,22.40
2019-02-14T13:00:51.543Z,22.43
2019-02-14T13:03:21.227Z,22.43
2019-02-14T13:05:50.947Z,22.44
2019-02-14T13:08:20.567Z,22.41
2019-02-14T13:10:50.373Z,22.41
2019-02-14T13:13:20.079Z,22.45
2019-02-14T13:15:49.719Z,22.49
2019-02-14T13:18:19.441Z,22.45
2019-02-14T13:20:49.269Z,22.49
2019-02-14T13:23:19.240Z,22.48
2019-02-14T13:25:49.085Z,22.45
2019-02-14T13:28:18.923Z,22.45
2019-02-14T13:30:48.612Z,22.43
2019-02-14T13:33:18.282Z,22.44
2019-02-14T13:35:47.918Z,22.50
2019-02-14T13:38:17.936Z,22.48
2019-02-14T13:40:47.622Z,22.45
2019-02-14T13:43:17.547Z,22.44
2019-02-14T13:45:47.229Z,22.43
2019-02-14T13:48:16.878Z,22.42
2019-02-14T13:50:46.832Z,22.45
2019-02-14T13:53:16.779Z,22.45
2019-02-14T13:55:46.748Z,22.41
2019-02-14T13:58:16.588Z,22.42
2019-02-14T14:00:46.485Z,22.43
2019-02-14T14:03:16.451Z,22.42
2019-02-14T14:05:46.324Z,22.29
2019-02-14T14:08:16.220Z,22.35
2019-02-14T14:10:45.890Z,22.35
2019-02-14T14:13:15.535Z,22.32
2019-02-14T14:15:45.302Z,22.28
2019-02-14T14:18:15.056Z,22.33
2019-02-14T14:20:44.869Z,22.32
2019-02-14T14:23:14.605Z,22.26
2019-02-14T14:25:44.245Z,22.22
2019-02-14T14:28:13.995Z,22.20
2019-02-14T14:30:43.684Z,22.18
2019-02-14T14:33:13.289Z,22.16
2019-02-14T14:35:43.110Z,22.07
2019-02-14T14:38:12.857Z,22.10
2019-02-14T14:40:42.688Z,22.00
2019-02-14T14:43:31.326Z,21.96
2019-02-14T14:46:26.271Z,21.87
2019-02-14T14:48:56.028Z,21.78
2019-02-14T14:51:25.633Z,21.78
2019-02-14T14:53:55.315Z,21.71
2019-02-14T14:56:25.101Z,21.69
2019-02-14T14:58:54.852Z,21.70
2019-02-14T15:01:24.551Z,21.65
2019-02-14T15:03:54.174Z,21.65
2019-02-14T15:06:23.926Z,21.57
2019-02-14T15:08:53.598Z,21.66
2019-02-14T15:11:23.505Z,21.64
2019-02-14T15:13:53.157Z,21.65
2019-02-14T15:16:22.949Z,21.59
2019-02-14T15:18:52.650Z,21.62
2019-02-14T15:21:22.503Z,21.63
2019-02-14T15:23:52.538Z,21.60
2019-02-14T15:26:22.394Z,21.64
2019-02-14T15:28:52.305Z,21.66
2019-02-14T15:31:22.051Z,21.64
2019-02-14T15:33:51.862Z,21.63
2019-02-14T15:36:22.241Z,21.66
2019-02-14T15:38:52.778Z,21.65
2019-02-14T15:41:22.430Z,21.57
2019-02-14T15:43:52.324Z,21.53
2019-02-14T15:46:22.157Z,21.49
2019-02-14T15:48:51.965Z,21.44
2019-02-14T15:51:21.584Z,21.42
2019-02-14T15:53:51.534Z,21.42
2019-02-14T15:56:21.268Z,21.42
2019-02-14T15:58:52.321Z,21.39
2019-02-14T16:01:22.541Z,21.40
2019-02-14T16:03:52.447Z,21.39
2019-02-14T16:06:22.254Z,21.37
2019-02-14T16:08:52.048Z,21.40
2019-02-14T16:11:21.846Z,21.40
2019-02-14T16:13:52.832Z,21.42
2019-02-14T16:16:24.185Z,21.43
2019-02-14T16:18:53.911Z,21.45
2019-02-14T16:21:23.613Z,21.46
2019-02-14T16:23:55.078Z,21.51
2019-02-14T16:26:25.115Z,21.46
2019-02-14T16:28:54.806Z,21.50
2019-02-14T16:31:24.612Z,21.52
2019-02-14T16:33:54.312Z,21.52
2019-02-14T16:36:24.025Z,21.54
2019-02-14T16:38:53.743Z,21.58
2019-02-14T16:41:23.586Z,21.56
2019-02-14T16:43:53.463Z,21.57
2019-02-14T16:46:23.124Z,21.52
2019-02-14T16:48:52.986Z,21.50
2019-02-14T16:51:22.776Z,21.48
2019-02-14T16:53:52.619Z,21.48
2019-02-14T16:56:22.304Z,21.46
2019-02-14T16:58:52.029Z,21.44
2019-02-14T17:01:22.002Z,21.45
2019-02-14T17:03:51.801Z,21.44
2019-02-14T17:06:21.623Z,21.45
2019-02-14T17:08:51.510Z,21.46
2019-02-14T17:11:21.148Z,21.45
2019-02-14T17:13:51.119Z,21.48
2019-02-14T17:16:20.818Z,21.61
2019-02-14T17:18:50.676Z,21.55
2019-02-14T17:21:20.300Z,21.56
2019-02-14T17:23:50.207Z,21.58
2019-02-14T17:26:20.163Z,21.58
2019-02-14T17:28:50.237Z,21.62
2019-02-14T17:31:22.742Z,21.64
2019-02-14T17:33:52.703Z,21.71
2019-02-14T17:36:23.183Z,21.76
2019-02-14T17:38:53.572Z,21.79
2019-02-14T17:41:24.249Z,21.81
2019-02-14T17:43:54.938Z,21.83
2019-02-14T17:46:29.922Z,21.75
2019-02-14T17:49:00.526Z,21.74
2019-02-14T17:51:31.450Z,21.71
2019-02-14T17:54:01.920Z,21.74
2019-02-14T17:56:32.766Z,21.68
2019-02-14T17:59:05.538Z,21.74
2019-02-14T18:01:38.128Z,21.73
2019-02-14T18:04:08.884Z,21.75
2019-02-14T18:06:43.547Z,21.73
2019-02-14T18:09:16.259Z,21.65
2019-02-14T18:11:47.304Z,21.73
2019-02-14T18:14:20.210Z,21.76
2019-02-14T18:16:53.425Z,21.78
2019-02-14T18:19:25.945Z,21.78
2019-02-14T18:21:55.759Z,21.79
2019-02-14T18:24:26.659Z,21.72
2019-02-14T18:26:56.919Z,21.71
2019-02-14T18:29:27.458Z,21.76
2019-02-14T18:31:57.373Z,21.73
2019-02-14T18:34:28.748Z,21.72
2019-02-14T18:36:58.808Z,21.72
2019-02-14T18:39:30.157Z,21.73
2019-02-14T18:42:01.331Z,21.74
2019-02-14T18:44:32.319Z,21.73
2019-02-14T18:47:02.357Z,21.74
2019-02-14T18:49:32.392Z,21.72
2019-02-14T18:52:03.154Z,21.81
2019-02-14T18:54:33.855Z,21.77
2019-02-14T18:57:03.849Z,21.69
2019-02-14T18:59:34.512Z,21.75
2019-02-14T19:02:04.738Z,21.76
2019-02-14T19:04:34.741Z,21.75
2019-02-14T19:07:04.911Z,21.75
2019-02-14T19:09:36.277Z,21.72
2019-02-14T19:12:07.769Z,21.81
2019-02-14T19:14:37.578Z,21.86
2019-02-14T19:17:07.401Z,21.83
2019-02-14T19:19:37.357Z,21.79
2019-02-14T19:22:08.864Z,21.75
2019-02-14T19:24:40.882Z,21.73
2019-02-14T19:27:11.134Z,21.72
2019-02-14T19:29:41.298Z,21.69
2019-02-14T19:32:11.516Z,21.74
2019-02-14T19:34:41.711Z,21.74
2019-02-14T19:37:13.124Z,21.72
2019-02-14T19:39:43.091Z,21.74
2019-02-14T19:42:13.013Z,21.75
2019-02-14T19:44:42.877Z,21.70
2019-02-14T19:47:12.818Z,21.69
2019-02-14T19:49:42.504Z,21.63
2019-02-14T19:52:12.281Z,21.64
2019-02-14T19:54:42.021Z,21.59
2019-02-14T19:57:11.661Z,21.61
2019-02-14T19:59:41.348Z,21.59
2019-02-14T20:02:11.204Z,21.57
2019-02-14T20:04:40.819Z,21.56
2019-02-14T20:07:10.494Z,21.58
2019-02-14T20:09:41.576Z,21.58
2019-02-14T20:12:11.333Z,21.55
2019-02-14T20:14:41.169Z,21.57
2019-02-14T20:17:10.875Z,21.56
2019-02-14T20:19:40.612Z,21.53
2019-02-14T20:22:10.295Z,21.53
2019-02-14T20:24:40.013Z,21.52
2019-02-14T20:27:09.811Z,21.50
2019-02-14T20:29:39.425Z,21.63
2019-02-14T20:32:09.187Z,21.67
2019-02-14T20:34:38.857Z,21.67
2019-02-14T20:37:08.446Z,21.69
2019-02-14T20:39:38.291Z,21.70
2019-02-14T20:42:08.079Z,21.70
2019-02-14T20:44:37.776Z,21.67
2019-02-14T20:47:07.495Z,21.70
2019-02-14T20:49:37.369Z,21.68
2019-02-14T20:52:07.318Z,21.64
2019-02-14T20:54:36.965Z,21.67
2019-02-14T20:57:06.670Z,21.65
2019-02-14T20:59:36.469Z,21.63
2019-02-14T21:02:08.006Z,21.61
2019-02-14T21:04:37.778Z,21.64
2019-02-14T21:07:07.430Z,21.64
2019-02-14T21:09:37.138Z,21.64
2019-02-14T21:12:06.791Z,21.64
2019-02-14T21:14:36.568Z,21.63
2019-02-14T21:17:06.203Z,21.58
2019-02-14T21:19:35.888Z,21.60
2019-02-14T21:22:05.550Z,21.58
2019-02-14T21:24:35.394Z,21.54
2019-02-14T21:27:05.065Z,21.56
2019-02-14T21:29:34.835Z,21.50
2019-02-14T21:32:04.566Z,21.54
2019-02-14T21:34:34.244Z,21.52
2019-02-14T21:37:04.019Z,21.52
2019-02-14T21:39:33.592Z,21.52
2019-02-14T21:42:18.771Z,21.53
2019-02-14T21:44:34.632Z,21.52
2019-02-14T21:47:04.790Z,21.51
2019-02-14T21:49:34.470Z,21.49
2019-02-14T21:52:04.185Z,21.53
2019-02-14T21:54:33.881Z,21.54
2019-02-14T21:57:03.613Z,21.49
2019-02-14T21:59:33.234Z,21.51
2019-02-14T22:02:05.977Z,21.49
2019-02-14T22:04:34.472Z,21.49
2019-02-14T22:07:04.516Z,21.49
2019-02-14T22:09:34.232Z,21.50
2019-02-14T22:12:03.932Z,21.51
2019-02-14T22:14:33.729Z,21.50
2019-02-14T22:17:03.478Z,21.47
2019-02-14T22:19:33.135Z,21.43
2019-02-14T22:22:02.795Z,21.50
2019-02-14T22:24:32.610Z,21.59
2019-02-14T22:27:02.341Z,21.60
2019-02-14T22:29:32.015Z,21.68
2019-02-14T22:32:01.825Z,21.63
2019-02-14T22:34:31.428Z,21.62
2019-02-14T22:37:01.024Z,21.63
2019-02-14T22:39:30.652Z,21.59
2019-02-14T22:42:00.452Z,21.51
2019-02-14T22:44:30.144Z,21.56
2019-02-14T22:46:59.753Z,21.55
2019-02-14T22:49:29.582Z,21.52
2019-02-14T22:51:59.207Z,21.53
2019-02-14T22:54:28.903Z,21.50
2019-02-14T22:56:58.520Z,21.48
2019-02-14T22:59:28.309Z,21.48
2019-02-14T23:01:57.953Z,21.49
2019-02-14T23:04:27.635Z,21.48
2019-02-14T23:06:57.344Z,21.55
2019-02-14T23:09:26.986Z,21.53
2019-02-14T23:11:56.762Z,21.53
2019-02-14T23:14:26.490Z,21.51
2019-02-14T23:16:56.237Z,21.51
2019-02-14T23:19:25.816Z,21.55
2019-02-14T23:21:55.406Z,21.52
2019-02-14T23:24:25.106Z,21.51
2019-02-14T23:26:54.824Z,21.50
2019-02-14T23:29:24.531Z,21.48
2019-02-14T23:31:54.168Z,21.48
2019-02-14T23:34:23.950Z,21.53
2019-02-14T23:36:53.628Z,21.56
2019-02-14T23:39:23.469Z,21.52
2019-02-14T23:41:53.203Z,21.52
2019-02-14T23:44:22.931Z,21.51
2019-02-14T23:46:52.575Z,21.52
2019-02-14T23:49:22.252Z,21.47
2019-02-14T23:51:51.961Z,21.50
2019-02-14T23:54:21.698Z,21.47
2019-02-14T23:56:51.379Z,21.45
2019-02-14T23:59:21.114Z,21.47
